Portage Des Sioux, MO

9:04 PM CDT on August 23, 2016 (GMT -0500)
Saint Charles County Smartt | | Change Station

Elev 436 ft 38.93 °N, 90.43 °W | Updated 10 minutes ago

Overcast
Overcast
72 °F
Feels Like 72 °F
N
6
Wind Variable Wind from East

Today
High -- | Low -- °F
--% Chance of Precip.
Yesterday
High -- | Low -- °F
Precip. -- in
Pressure 30.07 in
Visibility 10.0 miles
Clouds Overcast 3000 ft
Dew Point 72 °F
Humidity 100%
Rainfall 0.16 in
Snow Depth Not available.
6:22 AM 7:44 PM
Waning Gibbous, 62% visible
METAR KSET 240154Z AUTO 09005KT 10SM OVC030 22/22 A3008 RMK AO2 SLP182 T02220222
Pressure 30.07 in
Visibility 10.0 miles
Clouds Overcast 3000 ft
Dew Point 72 °F
Humidity 100%
Rainfall 0.16 in
Snow Depth Not available.
6:22 AM 7:44 PM
Waning Gibbous, 62% visible
METAR KSET 240154Z AUTO 09005KT 10SM OVC030 22/22 A3008 RMK AO2 SLP182 T02220222

10-Day Weather Forecast

Almanac

Astronomy

Aug. 23, 2016 Rise Set
Actual Time
Civil Twilight
Nautical Twilight
Astronomical Twilight
Moon
Length of Visible Light
Length of Day
Tomorrow will be .
, % of the Moon is Illuminated

Today's Extremes

State Highs State Lows

Community

WunderPhotos

Upload Photos

1,934,523 photos uploaded!

WunderBlog® & News

Nearby

Air Quality

  Air Quality AQ Index Pollutant
Not available.

Snow Depth

Station Depth Elevation

Earthquake Activity

City Distance Mag. Time & Date
Minimum magnitude displayed is 2.5.

Coastal Water Temperatures

Place Temperature

Stations

Nearby Weather Stations

Station Location Temp. Windchill Dew Point Humidity Wind Precip. Elev Updated Type
                   

Watches & Warnings

There are currently no watches in effect.